createdAt,value
2023-09-06T00:02:16.146Z,79.37
2023-09-06T00:04:45.508Z,78.87
2023-09-06T00:07:14.326Z,78.87
2023-09-06T00:09:41.217Z,78.95
2023-09-06T00:12:10.036Z,79.16
2023-09-06T00:14:37.961Z,79.16
2023-09-06T00:17:04.727Z,79.42
2023-09-06T00:19:31.416Z,79.98
2023-09-06T00:22:00.445Z,79.71
2023-09-06T00:24:27.299Z,79.70
2023-09-06T00:26:55.974Z,79.79
2023-09-06T00:29:22.771Z,79.92
2023-09-06T00:31:49.496Z,80.14
2023-09-06T00:34:16.692Z,80.02
2023-09-06T00:36:45.746Z,79.87
2023-09-06T00:39:15.287Z,80.46
2023-09-06T00:41:42.920Z,80.24
2023-09-06T00:44:09.696Z,80.19
2023-09-06T00:46:40.207Z,80.21
2023-09-06T00:49:08.828Z,80.41
2023-09-06T00:51:35.638Z,80.52
2023-09-06T00:54:02.461Z,80.72
2023-09-06T00:56:33.036Z,80.47
2023-09-06T00:59:02.327Z,80.82
2023-09-06T01:01:29.931Z,80.96
2023-09-06T01:03:58.410Z,81.04
2023-09-06T01:06:29.040Z,81.17
2023-09-06T01:09:00.152Z,81.01
2023-09-06T01:11:28.403Z,81.35
2023-09-06T01:14:04.647Z,81.67
2023-09-06T01:16:41.625Z,81.65
2023-09-06T01:19:12.841Z,81.45
2023-09-06T01:21:59.802Z,81.50
2023-09-06T01:24:30.412Z,81.44
2023-09-06T01:26:58.727Z,81.56
2023-09-06T01:29:25.468Z,81.70
2023-09-06T01:31:52.152Z,81.58
2023-09-06T01:34:18.925Z,81.85
2023-09-06T01:36:45.645Z,82.35
2023-09-06T01:39:12.517Z,82.12
2023-09-06T01:41:39.128Z,82.00
2023-09-06T01:44:06.204Z,81.67
2023-09-06T01:46:32.989Z,81.75
2023-09-06T01:49:02.737Z,81.98
2023-09-06T01:51:29.546Z,81.84
2023-09-06T01:53:56.579Z,81.96
2023-09-06T01:56:23.319Z,82.56
2023-09-06T01:58:52.269Z,82.23
2023-09-06T02:01:20.403Z,82.03
2023-09-06T02:03:47.192Z,82.22
2023-09-06T02:06:16.929Z,82.39
2023-09-06T02:08:46.011Z,82.75
2023-09-06T02:11:12.660Z,83.04
2023-09-06T02:13:39.364Z,82.97
2023-09-06T02:16:07.999Z,82.76
2023-09-06T02:18:34.832Z,82.79
2023-09-06T02:21:03.512Z,82.59
2023-09-06T02:23:30.260Z,82.70
2023-09-06T02:25:59.311Z,82.63
2023-09-06T02:28:26.049Z,82.56
2023-09-06T02:30:52.732Z,82.60
2023-09-06T02:33:21.816Z,82.39
2023-09-06T02:35:50.931Z,82.65
2023-09-06T02:38:18.228Z,82.40
2023-09-06T02:40:45.124Z,82.62
2023-09-06T02:43:12.522Z,83.25
2023-09-06T02:45:39.584Z,82.81
2023-09-06T02:48:08.893Z,82.98
2023-09-06T02:50:35.818Z,83.25
2023-09-06T02:53:05.229Z,83.51
2023-09-06T02:55:36.927Z,83.27
2023-09-06T02:58:03.604Z,83.67
2023-09-06T03:00:31.298Z,83.76
2023-09-06T03:03:07.161Z,83.78
2023-09-06T03:05:44.927Z,83.79
2023-09-06T03:08:13.525Z,83.67
2023-09-06T03:10:45.910Z,83.59
2023-09-06T03:13:12.813Z,83.84
2023-09-06T03:15:44.822Z,84.11
2023-09-06T03:18:11.807Z,84.15
2023-09-06T03:20:45.296Z,84.32
2023-09-06T03:23:20.472Z,84.18
2023-09-06T03:25:59.602Z,83.96
2023-09-06T03:28:27.376Z,83.71
2023-09-06T03:30:54.656Z,84.28
2023-09-06T03:33:21.309Z,84.27
2023-09-06T03:35:48.978Z,84.31
2023-09-06T03:38:19.343Z,84.22
2023-09-06T03:40:50.569Z,84.39
2023-09-06T03:43:18.189Z,84.77
2023-09-06T03:45:46.545Z,84.55
2023-09-06T03:48:18.971Z,84.61
2023-09-06T03:50:47.214Z,84.96
2023-09-06T03:53:15.936Z,84.41
2023-09-06T03:55:45.553Z,84.27
2023-09-06T03:58:12.352Z,84.50
2023-09-06T04:00:40.771Z,84.59
2023-09-06T04:03:10.086Z,84.21
2023-09-06T04:05:37.100Z,84.28
2023-09-06T04:08:10.540Z,84.55
2023-09-06T04:10:41.720Z,84.46
2023-09-06T04:13:10.738Z,84.54
2023-09-06T04:15:37.488Z,84.78
2023-09-06T04:18:11.390Z,84.53
2023-09-06T04:20:46.204Z,84.69
2023-09-06T04:23:14.606Z,84.94
2023-09-06T04:25:43.493Z,84.78
2023-09-06T04:28:20.589Z,84.69
2023-09-06T04:30:47.716Z,84.69
2023-09-06T04:33:17.405Z,84.68
2023-09-06T04:35:46.070Z,84.57
2023-09-06T04:38:14.041Z,84.58
2023-09-06T04:40:41.061Z,84.97
2023-09-06T04:43:08.998Z,84.70
2023-09-06T04:45:39.204Z,84.77
2023-09-06T04:48:13.203Z,85.12
2023-09-06T04:50:44.406Z,85.12
2023-09-06T04:53:14.487Z,84.70
2023-09-06T04:55:41.662Z,84.94
2023-09-06T04:58:13.141Z,85.14
2023-09-06T05:00:44.560Z,84.77
2023-09-06T05:03:15.024Z,85.00
2023-09-06T05:05:43.093Z,85.15
2023-09-06T05:08:13.084Z,84.85
2023-09-06T05:10:42.533Z,85.14
2023-09-06T05:13:09.830Z,85.43
2023-09-06T05:15:39.176Z,85.19
2023-09-06T05:18:07.553Z,85.10
2023-09-06T05:20:38.684Z,85.26
2023-09-06T05:23:06.871Z,85.23
2023-09-06T05:25:34.514Z,85.58
2023-09-06T05:28:03.507Z,85.59
2023-09-06T05:30:35.930Z,85.40
2023-09-06T05:33:02.662Z,85.33
2023-09-06T05:35:31.786Z,85.55
2023-09-06T05:38:01.408Z,85.54
2023-09-06T05:40:30.978Z,85.61
2023-09-06T05:42:58.353Z,85.55
2023-09-06T05:45:25.052Z,86.02
2023-09-06T05:47:51.952Z,86.04
2023-09-06T05:50:18.891Z,86.10
2023-09-06T05:52:45.668Z,85.88
2023-09-06T05:55:14.408Z,85.97
2023-09-06T05:57:41.087Z,85.89
2023-09-06T06:00:14.301Z,85.90
2023-09-06T06:02:41.441Z,85.89
2023-09-06T06:05:11.165Z,85.74
2023-09-06T06:07:40.740Z,85.45
2023-09-06T06:10:11.193Z,85.60
2023-09-06T06:12:40.748Z,85.52
2023-09-06T06:15:15.065Z,85.34
2023-09-06T06:17:43.029Z,84.89
2023-09-06T06:20:12.382Z,85.05
2023-09-06T06:22:41.108Z,85.10
2023-09-06T06:25:09.396Z,84.99
2023-09-06T06:27:42.446Z,84.46
2023-09-06T06:30:09.713Z,84.42
2023-09-06T06:32:37.164Z,84.06
2023-09-06T06:35:07.594Z,84.11
2023-09-06T06:37:37.480Z,83.88
2023-09-06T06:40:07.372Z,83.17
2023-09-06T06:42:35.485Z,83.21
2023-09-06T06:45:05.934Z,82.72
2023-09-06T06:47:35.542Z,82.12
2023-09-06T06:50:07.173Z,81.59
2023-09-06T06:52:37.963Z,81.14
2023-09-06T06:55:07.931Z,80.25
2023-09-06T06:57:36.639Z,79.97
2023-09-06T07:00:07.475Z,79.27
2023-09-06T07:02:39.147Z,78.54
2023-09-06T07:05:06.048Z,78.01
2023-09-06T07:07:32.776Z,78.03
2023-09-06T07:09:59.399Z,78.17
2023-09-06T07:12:26.096Z,77.58
2023-09-06T07:14:53.249Z,77.71
2023-09-06T07:17:22.136Z,76.51
2023-09-06T07:19:51.470Z,76.98
2023-09-06T07:22:18.300Z,76.51
2023-09-06T07:24:47.212Z,76.54
2023-09-06T07:27:13.875Z,74.63
2023-09-06T07:29:42.976Z,73.60
2023-09-06T07:32:09.771Z,73.03
2023-09-06T07:34:36.483Z,70.68
2023-09-06T07:37:03.768Z,68.70
2023-09-06T07:39:30.733Z,67.68
2023-09-06T07:41:57.521Z,65.66
2023-09-06T07:44:24.216Z,64.36
2023-09-06T07:46:53.341Z,62.69
2023-09-06T07:49:22.555Z,61.58
2023-09-06T07:51:49.313Z,60.17
2023-09-06T07:54:16.065Z,58.59
2023-09-06T07:56:44.119Z,57.75
2023-09-06T07:59:13.244Z,56.89
2023-09-06T08:01:45.710Z,55.81
2023-09-06T08:04:14.751Z,53.92
2023-09-06T08:06:44.321Z,53.00
2023-09-06T08:09:11.858Z,52.75
2023-09-06T08:11:40.908Z,52.11
2023-09-06T08:14:10.084Z,50.49
2023-09-06T08:16:36.851Z,49.99
2023-09-06T08:19:04.638Z,47.94
2023-09-06T08:21:31.709Z,48.27
2023-09-06T08:23:58.534Z,47.63
2023-09-06T08:26:25.245Z,47.44
2023-09-06T08:28:57.482Z,47.18
2023-09-06T08:31:24.265Z,47.21
2023-09-06T08:33:51.277Z,45.79
2023-09-06T08:36:19.464Z,45.69
2023-09-06T08:38:51.064Z,45.69
2023-09-06T08:41:18.520Z,45.15
2023-09-06T08:43:45.379Z,44.41
2023-09-06T08:46:28.620Z,45.13
2023-09-06T08:48:57.357Z,45.47
2023-09-06T08:51:33.485Z,45.31
2023-09-06T08:54:01.326Z,44.98
2023-09-06T08:56:28.622Z,44.94
2023-09-06T08:58:55.318Z,44.73
2023-09-06T09:01:23.306Z,44.72
2023-09-06T09:03:50.351Z,44.59
2023-09-06T09:06:19.286Z,44.78
2023-09-06T09:08:46.060Z,43.78
2023-09-06T09:11:20.037Z,43.56
2023-09-06T09:13:49.358Z,43.20
2023-09-06T09:16:17.777Z,43.24
2023-09-06T09:18:46.157Z,42.94
2023-09-06T09:21:14.374Z,43.27
2023-09-06T09:23:48.000Z,42.88
2023-09-06T09:26:15.136Z,42.74
2023-09-06T09:28:42.777Z,42.57
2023-09-06T09:31:16.954Z,42.98
2023-09-06T09:33:47.261Z,42.79
2023-09-06T09:36:16.064Z,42.89
2023-09-06T09:38:51.068Z,43.63
2023-09-06T09:41:18.672Z,43.29
2023-09-06T09:43:47.601Z,43.34
2023-09-06T09:46:27.308Z,43.24
2023-09-06T09:49:00.177Z,43.27
2023-09-06T09:51:29.617Z,43.90
2023-09-06T09:53:56.674Z,44.60
2023-09-06T09:56:23.999Z,44.52
2023-09-06T09:58:52.903Z,44.39
2023-09-06T10:01:21.503Z,45.85
2023-09-06T10:03:51.199Z,46.40
2023-09-06T10:06:18.887Z,46.79
2023-09-06T10:08:49.261Z,46.87
2023-09-06T10:11:18.874Z,47.16
2023-09-06T10:13:49.010Z,47.45
2023-09-06T10:16:15.805Z,47.46
2023-09-06T10:18:43.422Z,46.87
2023-09-06T10:21:15.645Z,47.73
2023-09-06T10:23:43.595Z,47.61
2023-09-06T10:26:10.927Z,47.66
2023-09-06T10:28:40.401Z,47.45
2023-09-06T10:31:10.037Z,46.99
2023-09-06T10:33:37.214Z,47.78
2023-09-06T10:36:13.146Z,47.18
2023-09-06T10:38:52.044Z,47.74
2023-09-06T10:41:22.556Z,48.12
2023-09-06T10:44:08.569Z,48.49
2023-09-06T10:46:38.559Z,48.82
2023-09-06T10:49:15.159Z,49.26
2023-09-06T10:52:01.582Z,49.40
2023-09-06T10:54:39.643Z,48.91
2023-09-06T10:57:11.793Z,48.76
2023-09-06T10:59:46.683Z,48.48
2023-09-06T11:02:25.056Z,48.52
2023-09-06T11:05:09.793Z,48.24
2023-09-06T11:07:50.427Z,48.67
2023-09-06T11:10:25.265Z,48.44
2023-09-06T11:12:55.612Z,49.04
2023-09-06T11:15:23.882Z,49.40
2023-09-06T11:18:00.434Z,48.53
2023-09-06T11:20:27.468Z,49.10
2023-09-06T11:22:58.444Z,48.91
2023-09-06T11:25:26.555Z,48.91
2023-09-06T11:28:02.210Z,49.16
2023-09-06T11:30:32.905Z,48.33
2023-09-06T11:33:00.030Z,48.45
2023-09-06T11:35:29.990Z,48.87
2023-09-06T11:38:01.490Z,48.75
2023-09-06T11:40:31.128Z,49.03
2023-09-06T11:43:03.823Z,48.96
2023-09-06T11:45:32.845Z,48.69
2023-09-06T11:48:09.664Z,49.89
2023-09-06T11:50:39.722Z,49.50
2023-09-06T11:53:11.339Z,49.98
2023-09-06T11:55:47.138Z,49.91
2023-09-06T11:58:22.520Z,49.92
2023-09-06T12:00:52.787Z,50.04
2023-09-06T12:03:23.271Z,49.94
2023-09-06T12:05:54.632Z,49.98
2023-09-06T12:08:26.484Z,50.59
2023-09-06T12:10:56.090Z,50.25
2023-09-06T12:13:33.243Z,49.78
2023-09-06T12:16:00.716Z,49.79
2023-09-06T12:18:31.549Z,50.09
2023-09-06T12:20:59.610Z,50.15
2023-09-06T12:23:30.614Z,50.04
2023-09-06T12:25:59.136Z,49.43
2023-09-06T12:28:26.742Z,49.78
2023-09-06T12:30:56.392Z,50.43
2023-09-06T12:33:28.532Z,51.13
2023-09-06T12:36:06.875Z,50.89
2023-09-06T12:38:33.719Z,50.60
2023-09-06T12:41:06.223Z,51.00
2023-09-06T12:43:36.400Z,51.38
2023-09-06T12:46:12.524Z,51.95
2023-09-06T12:48:39.733Z,51.69
2023-09-06T12:51:07.906Z,51.42
2023-09-06T12:53:35.257Z,52.57
2023-09-06T12:56:01.975Z,52.26
2023-09-06T12:58:29.159Z,51.62
2023-09-06T13:00:58.629Z,51.97
2023-09-06T13:03:26.662Z,52.85
2023-09-06T13:05:53.733Z,52.39
2023-09-06T13:08:21.087Z,53.32
2023-09-06T13:10:48.321Z,53.03
2023-09-06T13:13:19.973Z,52.53
2023-09-06T13:15:49.456Z,52.28
2023-09-06T13:18:16.288Z,51.90
2023-09-06T13:20:43.053Z,51.24
2023-09-06T13:23:11.769Z,52.48
2023-09-06T13:25:39.584Z,52.64
2023-09-06T13:28:06.482Z,52.79
2023-09-06T13:30:33.279Z,53.20
2023-09-06T13:33:02.527Z,53.37
2023-09-06T13:35:29.393Z,53.81
2023-09-06T13:37:57.494Z,54.71
2023-09-06T13:40:25.216Z,54.24
2023-09-06T13:42:52.049Z,55.05
2023-09-06T13:45:19.807Z,54.90
2023-09-06T13:47:46.716Z,55.55
2023-09-06T13:50:13.433Z,55.32
2023-09-06T13:52:40.118Z,55.18
2023-09-06T13:55:07.986Z,55.36
2023-09-06T13:57:36.933Z,55.18
2023-09-06T14:00:07.110Z,55.21
2023-09-06T14:02:36.409Z,54.94
2023-09-06T14:05:05.854Z,55.23
2023-09-06T14:07:32.687Z,55.16
2023-09-06T14:09:59.732Z,55.31
2023-09-06T14:12:27.256Z,55.38
2023-09-06T14:14:57.947Z,55.00
2023-09-06T14:17:24.838Z,55.09
2023-09-06T14:19:52.023Z,55.29
2023-09-06T14:22:18.709Z,55.29
2023-09-06T14:24:45.370Z,55.23
2023-09-06T14:27:12.257Z,55.31
2023-09-06T14:29:39.004Z,55.97
2023-09-06T14:32:05.990Z,56.04
2023-09-06T14:34:36.500Z,55.56
2023-09-06T14:37:04.863Z,55.68
2023-09-06T14:39:33.708Z,55.37
2023-09-06T14:42:00.464Z,55.78
2023-09-06T14:44:27.789Z,56.02
2023-09-06T14:46:54.619Z,55.65
2023-09-06T14:49:21.549Z,55.60
2023-09-06T14:51:48.276Z,56.43
2023-09-06T14:54:14.994Z,56.36
2023-09-06T14:56:44.172Z,55.96
2023-09-06T14:59:13.418Z,55.85
2023-09-06T15:01:40.265Z,55.90
2023-09-06T15:04:07.452Z,56.50
2023-09-06T15:06:56.370Z,57.08
2023-09-06T15:09:26.442Z,57.37
2023-09-06T15:11:56.447Z,57.01
2023-09-06T15:14:27.300Z,57.28
2023-09-06T15:16:54.058Z,56.89
2023-09-06T15:19:20.917Z,57.25
2023-09-06T15:21:50.168Z,57.24
2023-09-06T15:24:18.189Z,56.99
2023-09-06T15:26:44.940Z,56.71
2023-09-06T15:29:12.656Z,57.26
2023-09-06T15:31:39.375Z,56.72
2023-09-06T15:34:06.152Z,57.15
2023-09-06T15:36:35.038Z,56.94
2023-09-06T15:39:02.945Z,57.20
2023-09-06T15:41:33.898Z,57.35
2023-09-06T15:44:03.564Z,57.01
2023-09-06T15:46:33.354Z,57.80
2023-09-06T15:49:00.114Z,57.61
2023-09-06T15:51:29.337Z,57.81
2023-09-06T15:53:58.642Z,58.28
2023-09-06T15:56:28.310Z,58.25
2023-09-06T15:58:55.252Z,58.78
2023-09-06T16:01:22.407Z,58.84
2023-09-06T16:03:51.825Z,59.15
2023-09-06T16:06:21.084Z,58.81
2023-09-06T16:08:47.853Z,58.68
2023-09-06T16:11:14.648Z,58.88
2023-09-06T16:13:41.349Z,59.07
2023-09-06T16:16:08.045Z,59.34
2023-09-06T16:18:34.849Z,58.99
2023-09-06T16:21:01.596Z,59.09
2023-09-06T16:23:29.334Z,59.32
2023-09-06T16:25:58.275Z,59.48
2023-09-06T16:28:27.524Z,59.01
2023-09-06T16:30:56.702Z,59.78
2023-09-06T16:33:26.059Z,59.83
2023-09-06T16:35:53.021Z,59.73
2023-09-06T16:38:20.090Z,60.22
2023-09-06T16:40:49.359Z,60.04
2023-09-06T16:43:16.241Z,60.21
2023-09-06T16:45:45.569Z,60.17
2023-09-06T16:48:12.416Z,60.08
2023-09-06T16:50:40.564Z,60.14
2023-09-06T16:53:07.553Z,59.74
2023-09-06T16:55:34.617Z,59.76
2023-09-06T16:58:07.972Z,59.68
2023-09-06T17:00:35.999Z,59.70
2023-09-06T17:03:02.888Z,60.15
2023-09-06T17:05:29.624Z,59.99
2023-09-06T17:07:56.336Z,60.34
2023-09-06T17:10:23.104Z,60.62
2023-09-06T17:12:53.628Z,61.04
2023-09-06T17:15:22.607Z,61.71
2023-09-06T17:17:51.006Z,61.96
2023-09-06T17:20:19.424Z,61.77
2023-09-06T17:22:46.564Z,62.40
2023-09-06T17:25:13.520Z,62.03
2023-09-06T17:27:43.872Z,62.37
2023-09-06T17:30:20.457Z,63.01
2023-09-06T17:33:07.050Z,62.77
2023-09-06T17:35:34.394Z,63.26
2023-09-06T17:38:07.585Z,63.68
2023-09-06T17:40:35.383Z,63.76
2023-09-06T17:43:02.328Z,63.87
2023-09-06T17:45:31.255Z,64.08
2023-09-06T17:47:59.016Z,64.41
2023-09-06T17:50:25.988Z,64.02
2023-09-06T17:52:52.650Z,63.97
2023-09-06T17:55:21.122Z,64.17
2023-09-06T17:57:48.702Z,64.23
2023-09-06T18:00:24.139Z,64.31
2023-09-06T18:02:51.679Z,64.69
2023-09-06T18:05:21.216Z,64.78
2023-09-06T18:07:48.257Z,65.15
2023-09-06T18:10:17.776Z,65.10
2023-09-06T18:12:44.987Z,65.34
2023-09-06T18:15:13.479Z,65.10
2023-09-06T18:17:52.524Z,65.26
2023-09-06T18:20:19.552Z,65.59
2023-09-06T18:22:49.271Z,65.41
2023-09-06T18:25:15.948Z,64.85
2023-09-06T18:27:42.649Z,64.96
2023-09-06T18:30:16.852Z,64.97
2023-09-06T18:32:44.151Z,65.25
2023-09-06T18:35:12.087Z,65.48
2023-09-06T18:37:39.184Z,65.51
2023-09-06T18:40:16.496Z,65.87
2023-09-06T18:42:53.496Z,66.32
2023-09-06T18:45:21.013Z,66.25
2023-09-06T18:47:50.523Z,66.16
2023-09-06T18:50:18.910Z,66.31
2023-09-06T18:52:47.014Z,67.10
2023-09-06T18:55:16.278Z,66.79
2023-09-06T18:57:55.460Z,67.40
2023-09-06T19:00:26.091Z,66.81
2023-09-06T19:02:54.085Z,67.21
2023-09-06T19:05:20.957Z,66.89
2023-09-06T19:07:48.685Z,67.07
2023-09-06T19:10:17.498Z,67.77
2023-09-06T19:12:46.037Z,67.83
2023-09-06T19:15:17.673Z,67.40
2023-09-06T19:17:48.010Z,67.92
2023-09-06T19:20:19.716Z,68.37
2023-09-06T19:22:53.982Z,68.80
2023-09-06T19:25:25.438Z,68.47
2023-09-06T19:27:53.155Z,68.88
2023-09-06T19:30:22.450Z,68.57
2023-09-06T19:32:51.535Z,68.92
2023-09-06T19:35:18.512Z,68.76
2023-09-06T19:37:45.360Z,69.40
2023-09-06T19:40:14.508Z,69.92
2023-09-06T19:42:41.268Z,70.08
2023-09-06T19:45:10.392Z,69.86
2023-09-06T19:47:38.050Z,69.83
2023-09-06T19:50:05.656Z,69.67
2023-09-06T19:52:32.340Z,69.77
2023-09-06T19:55:02.185Z,70.00
2023-09-06T19:57:31.716Z,70.18
2023-09-06T20:00:02.320Z,70.10
2023-09-06T20:02:31.770Z,70.12
2023-09-06T20:04:59.039Z,70.44
2023-09-06T20:07:26.081Z,70.46
2023-09-06T20:09:53.518Z,71.13
2023-09-06T20:12:20.269Z,70.89
2023-09-06T20:14:47.076Z,70.98
2023-09-06T20:17:13.823Z,71.21
2023-09-06T20:19:40.616Z,71.32
2023-09-06T20:22:07.249Z,71.32
2023-09-06T20:24:33.926Z,71.87
2023-09-06T20:27:00.656Z,72.60
2023-09-06T20:29:33.281Z,72.28
2023-09-06T20:32:01.083Z,72.64
2023-09-06T20:34:30.868Z,72.71
2023-09-06T20:36:57.561Z,72.65
2023-09-06T20:39:26.461Z,72.56
2023-09-06T20:41:53.127Z,72.95
2023-09-06T20:44:19.825Z,73.53
2023-09-06T20:46:46.604Z,73.88
2023-09-06T20:49:18.326Z,73.42
2023-09-06T20:51:46.034Z,73.61
2023-09-06T20:54:12.979Z,74.13
2023-09-06T20:56:42.708Z,74.46
2023-09-06T20:59:09.470Z,74.22
2023-09-06T21:01:36.194Z,74.63
2023-09-06T21:04:05.659Z,74.71
2023-09-06T21:06:33.276Z,74.63
2023-09-06T21:09:02.298Z,74.85
2023-09-06T21:11:29.153Z,74.97
2023-09-06T21:13:55.914Z,74.43
2023-09-06T21:16:25.065Z,74.61
2023-09-06T21:18:52.564Z,74.79
2023-09-06T21:21:19.464Z,74.89
2023-09-06T21:23:46.239Z,74.80
2023-09-06T21:26:12.953Z,75.13
2023-09-06T21:28:39.726Z,74.40
2023-09-06T21:31:08.749Z,74.89
2023-09-06T21:33:35.563Z,75.08
2023-09-06T21:36:02.398Z,74.87
2023-09-06T21:38:29.520Z,74.82
2023-09-06T21:40:57.964Z,75.18
2023-09-06T21:43:24.847Z,75.64
2023-09-06T21:45:55.902Z,75.24
2023-09-06T21:48:23.271Z,74.70
2023-09-06T21:50:55.484Z,75.50
2023-09-06T21:53:22.163Z,75.56
2023-09-06T21:55:51.322Z,75.09
2023-09-06T21:58:20.264Z,75.06
2023-09-06T22:00:46.983Z,76.09
2023-09-06T22:03:15.016Z,76.14
2023-09-06T22:05:41.747Z,75.35
2023-09-06T22:08:08.992Z,76.01
2023-09-06T22:10:35.620Z,75.47
2023-09-06T22:13:03.932Z,75.39
2023-09-06T22:15:30.684Z,75.72
2023-09-06T22:17:57.687Z,75.73
2023-09-06T22:20:24.607Z,76.01
2023-09-06T22:22:53.570Z,76.02
2023-09-06T22:25:23.414Z,76.02
2023-09-06T22:27:51.335Z,76.32
2023-09-06T22:30:20.660Z,76.40
2023-09-06T22:32:47.340Z,76.84
2023-09-06T22:35:14.214Z,76.49
2023-09-06T22:37:42.591Z,76.30
2023-09-06T22:40:09.961Z,76.22
2023-09-06T22:42:36.710Z,77.03
2023-09-06T22:45:03.579Z,77.49
2023-09-06T22:47:30.294Z,77.72
2023-09-06T22:49:57.104Z,77.69
2023-09-06T22:52:24.737Z,76.73
2023-09-06T22:54:51.650Z,76.92
2023-09-06T22:57:18.776Z,77.70
2023-09-06T22:59:45.588Z,77.34
2023-09-06T23:02:12.389Z,77.12
2023-09-06T23:04:41.975Z,78.00
2023-09-06T23:07:12.200Z,78.46
2023-09-06T23:09:41.153Z,78.12
2023-09-06T23:12:07.948Z,78.02
2023-09-06T23:14:38.237Z,78.19
2023-09-06T23:17:08.727Z,78.62
2023-09-06T23:19:48.374Z,78.74
2023-09-06T23:22:18.277Z,78.71
2023-09-06T23:24:50.610Z,78.29
2023-09-06T23:27:24.428Z,78.48
2023-09-06T23:29:59.780Z,78.52
2023-09-06T23:32:32.327Z,79.28
2023-09-06T23:34:59.595Z,78.93
2023-09-06T23:37:28.034Z,79.21
2023-09-06T23:39:55.730Z,79.24
2023-09-06T23:42:23.219Z,79.70
2023-09-06T23:44:49.975Z,79.49
2023-09-06T23:47:17.656Z,79.70
2023-09-06T23:49:46.779Z,79.57
2023-09-06T23:52:16.132Z,80.14
2023-09-06T23:54:48.542Z,79.79
2023-09-06T23:57:19.115Z,79.92
2023-09-06T23:59:46.888Z,79.85
